createdAt,value
2019-04-21T00:00:58.603Z,91.00
2019-04-21T00:03:33.424Z,91.10
2019-04-21T00:06:18.643Z,91.60
2019-04-21T00:08:51.688Z,92.00
2019-04-21T00:11:25.063Z,92.30
2019-04-21T00:13:47.020Z,92.60
2019-04-21T00:16:10.867Z,92.60
2019-04-21T00:19:01.082Z,92.50
2019-04-21T00:21:34.452Z,92.60
2019-04-21T00:24:30.507Z,92.70
2019-04-21T00:27:03.847Z,92.60
2019-04-21T00:29:38.618Z,92.60
2019-04-21T00:32:06.764Z,92.50
2019-04-21T00:34:21.920Z,92.40
2019-04-21T00:37:03.106Z,92.50
2019-04-21T00:42:13.909Z,91.70
2019-04-21T00:44:38.792Z,91.80
2019-04-21T00:47:26.742Z,91.30
2019-04-21T00:49:56.663Z,91.20
2019-04-21T00:52:52.475Z,91.20
2019-04-21T00:55:29.217Z,91.30
2019-04-21T00:58:06.872Z,91.40
2019-04-21T01:00:33.208Z,91.50
2019-04-21T01:03:02.746Z,91.60
2019-04-21T01:05:52.875Z,91.60
2019-04-21T01:08:10.025Z,91.90
2019-04-21T01:10:32.011Z,92.20
2019-04-21T01:13:16.862Z,92.40
2019-04-21T01:15:49.005Z,92.40
2019-04-21T01:18:16.461Z,92.40
2019-04-21T01:20:27.180Z,92.60
2019-04-21T01:22:57.794Z,92.70
2019-04-21T01:25:35.297Z,93.00
2019-04-21T01:28:18.843Z,93.20
2019-04-21T01:30:53.587Z,93.40
2019-04-21T01:33:26.283Z,93.70
2019-04-21T01:35:54.474Z,93.80
2019-04-21T01:38:34.208Z,94.20
2019-04-21T01:41:08.575Z,94.00
2019-04-21T01:43:31.535Z,94.00
2019-04-21T01:46:06.787Z,94.00
2019-04-21T01:48:36.060Z,94.10
2019-04-21T01:51:05.327Z,94.20
2019-04-21T01:53:55.129Z,94.30
2019-04-21T01:56:44.540Z,94.30
2019-04-21T01:59:07.388Z,94.30
2019-04-21T02:01:52.295Z,94.30
2019-04-21T02:04:29.358Z,94.40
2019-04-21T02:06:57.297Z,94.40
2019-04-21T02:09:38.348Z,94.70
2019-04-21T02:12:14.789Z,94.70
2019-04-21T02:14:50.495Z,94.80
2019-04-21T02:17:20.381Z,95.00
2019-04-21T02:19:41.250Z,95.10
2019-04-21T02:22:25.869Z,95.20
2019-04-21T02:24:57.782Z,95.30
2019-04-21T02:27:23.410Z,95.30
2019-04-21T02:30:05.653Z,95.30
2019-04-21T02:32:48.257Z,95.30
2019-04-21T02:37:44.311Z,95.50
2019-04-21T02:40:15.003Z,95.60
2019-04-21T02:43:07.342Z,95.80
2019-04-21T02:45:22.951Z,96.00
2019-04-21T02:47:59.203Z,96.10
2019-04-21T02:50:24.371Z,96.00
2019-04-21T02:53:03.223Z,96.00
2019-04-21T03:03:34.355Z,96.10
2019-04-21T03:06:39.352Z,96.20
2019-04-21T03:08:59.040Z,96.30
2019-04-21T03:11:49.083Z,96.30
2019-04-21T03:14:13.675Z,96.20
2019-04-21T03:16:31.024Z,96.20
2019-04-21T03:19:06.358Z,96.20
2019-04-21T03:21:38.657Z,96.10
2019-04-21T03:24:29.476Z,96.20
2019-04-21T03:26:48.680Z,96.20
2019-04-21T03:29:22.402Z,96.20
2019-04-21T03:42:07.431Z,96.40
2019-04-21T03:44:32.265Z,96.50
2019-04-21T03:49:45.613Z,96.70
2019-04-21T03:52:19.516Z,96.80
2019-04-21T03:54:42.840Z,96.90
2019-04-21T03:57:17.774Z,96.90
2019-04-21T03:59:47.356Z,97.00
2019-04-21T04:02:27.402Z,97.00
2019-04-21T04:05:15.051Z,97.00
2019-04-21T04:08:02.157Z,96.90
2019-04-21T04:10:26.425Z,96.90
2019-04-21T04:12:57.196Z,96.90
2019-04-21T04:15:45.344Z,96.90
2019-04-21T04:18:05.422Z,97.00
2019-04-21T04:20:37.084Z,97.00
2019-04-21T04:23:08.077Z,97.10
2019-04-21T04:25:33.790Z,97.20
2019-04-21T04:28:28.758Z,97.30
2019-04-21T04:30:45.370Z,97.30
2019-04-21T04:33:20.662Z,97.30
2019-04-21T04:38:22.303Z,97.40
2019-04-21T04:41:16.939Z,97.50
2019-04-21T04:43:47.582Z,97.60
2019-04-21T04:46:33.340Z,97.60
2019-04-21T04:51:25.279Z,98.10
2019-04-21T04:53:47.198Z,97.60
2019-04-21T04:56:39.843Z,97.20
2019-04-21T05:01:54.945Z,96.90
2019-04-21T05:06:41.918Z,96.80
2019-04-21T05:09:11.021Z,96.90
2019-04-21T05:24:10.869Z,97.10
2019-04-21T05:26:37.120Z,97.10
2019-04-21T05:29:08.105Z,97.00
2019-04-21T05:32:13.660Z,96.80
2019-04-21T05:34:31.599Z,96.80
2019-04-21T05:37:25.643Z,96.80
2019-04-21T05:39:55.853Z,96.70
2019-04-21T05:42:30.281Z,96.50
2019-04-21T05:45:10.599Z,96.20
2019-04-21T05:48:06.009Z,96.10
2019-04-21T05:50:30.547Z,96.10
2019-04-21T05:52:53.583Z,96.00
2019-04-21T05:55:49.145Z,95.60
2019-04-21T05:58:08.487Z,94.90
2019-04-21T06:00:59.391Z,94.40
2019-04-21T06:03:17.610Z,94.10
2019-04-21T06:06:00.281Z,93.30
2019-04-21T06:08:17.918Z,92.80
2019-04-21T06:10:53.921Z,92.20
2019-04-21T06:13:31.622Z,91.70
2019-04-21T06:15:56.158Z,91.50
2019-04-21T06:18:36.396Z,91.20
2019-04-21T06:21:00.160Z,91.30
2019-04-21T06:23:30.104Z,91.80
2019-04-21T06:28:41.335Z,93.40
2019-04-21T06:31:17.989Z,93.70
2019-04-21T06:33:45.968Z,94.90
2019-04-21T06:39:11.636Z,95.60
2019-04-21T06:41:37.954Z,96.20
2019-04-21T06:44:23.975Z,96.30
2019-04-21T06:46:45.850Z,96.20
2019-04-21T06:49:08.583Z,95.80
2019-04-21T06:51:42.958Z,96.80
2019-04-21T06:54:16.180Z,95.90
2019-04-21T06:57:00.817Z,95.00
2019-04-21T06:59:25.318Z,93.90
2019-04-21T07:01:56.713Z,93.90
2019-04-21T07:06:59.236Z,92.90
2019-04-21T07:09:31.109Z,92.60
2019-04-21T07:11:59.878Z,90.90
2019-04-21T07:14:32.034Z,90.40
2019-04-21T07:17:12.627Z,90.20
2019-04-21T07:19:49.720Z,89.40
2019-04-21T07:22:12.712Z,90.60
2019-04-21T07:24:45.817Z,89.50
2019-04-21T07:27:15.210Z,90.10
2019-04-21T07:29:56.565Z,89.20
2019-04-21T07:32:20.730Z,87.40
2019-04-21T07:34:57.830Z,86.30
2019-04-21T07:37:23.939Z,88.00
2019-04-21T07:39:54.959Z,88.80
2019-04-21T07:42:24.406Z,87.70
2019-04-21T07:44:53.542Z,86.10
2019-04-21T07:47:40.545Z,86.50
2019-04-21T07:50:14.623Z,86.50
2019-04-21T07:53:05.186Z,86.10
2019-04-21T07:57:56.149Z,86.00
2019-04-21T08:00:36.121Z,85.30
2019-04-21T08:03:19.566Z,85.20
2019-04-21T08:05:43.986Z,89.60
2019-04-21T08:08:04.839Z,88.60
2019-04-21T08:10:40.776Z,85.50
2019-04-21T08:13:22.057Z,87.30
2019-04-21T08:15:45.873Z,85.50
2019-04-21T08:18:21.085Z,86.30
2019-04-21T08:20:50.734Z,85.90
2019-04-21T08:23:25.652Z,86.80
2019-04-21T08:26:03.782Z,84.30
2019-04-21T08:28:26.260Z,86.00
2019-04-21T08:31:01.622Z,85.10
2019-04-21T08:38:35.876Z,86.90
2019-04-21T08:41:08.052Z,84.90
2019-04-21T08:43:40.877Z,85.00
2019-04-21T08:46:16.105Z,84.70
2019-04-21T08:48:48.023Z,83.50
2019-04-21T08:51:27.583Z,81.90
2019-04-21T08:56:52.969Z,82.70
2019-04-21T08:59:50.670Z,78.50
2019-04-21T09:03:02.525Z,76.90
2019-04-21T09:05:11.594Z,73.50
2019-04-21T09:07:56.053Z,68.90
2019-04-21T09:10:16.894Z,70.80
2019-04-21T09:12:51.761Z,70.50
2019-04-21T09:15:30.031Z,66.80
2019-04-21T09:17:48.985Z,66.80
2019-04-21T09:20:40.197Z,65.40
2019-04-21T09:23:00.731Z,66.70
2019-04-21T09:25:40.714Z,65.70
2019-04-21T09:28:00.561Z,65.50
2019-04-21T09:30:17.607Z,63.30
2019-04-21T09:32:52.257Z,61.70
2019-04-21T09:35:21.903Z,61.00
2019-04-21T09:37:58.861Z,59.90
2019-04-21T09:40:31.554Z,59.50
2019-04-21T09:43:02.629Z,57.80
2019-04-21T09:45:28.637Z,58.00
2019-04-21T09:48:06.166Z,58.80
2019-04-21T09:50:34.507Z,56.90
2019-04-21T09:53:14.614Z,54.70
2019-04-21T09:55:43.966Z,54.70
2019-04-21T09:58:18.122Z,56.20
2019-04-21T10:00:50.991Z,54.10
2019-04-21T10:03:15.718Z,53.20
2019-04-21T10:05:45.232Z,53.00
2019-04-21T10:08:16.649Z,52.60
2019-04-21T10:10:47.370Z,51.00
2019-04-21T10:13:17.794Z,50.20
2019-04-21T10:15:54.553Z,50.50
2019-04-21T10:18:25.174Z,49.50
2019-04-21T10:20:56.955Z,50.70
2019-04-21T10:23:27.526Z,49.80
2019-04-21T10:25:58.723Z,49.90
2019-04-21T10:28:29.104Z,50.10
2019-04-21T10:31:00.674Z,51.40
2019-04-21T10:33:32.502Z,49.20
2019-04-21T10:36:04.585Z,50.00
2019-04-21T10:38:40.813Z,47.80
2019-04-21T10:41:07.686Z,47.60
2019-04-21T10:43:38.361Z,47.80
2019-04-21T10:46:08.837Z,46.80
2019-04-21T10:48:39.452Z,47.20
2019-04-21T10:51:10.761Z,47.70
2019-04-21T10:53:42.843Z,47.10
2019-04-21T10:56:21.748Z,46.20
2019-04-21T10:58:47.226Z,46.70
2019-04-21T11:01:29.435Z,47.10
2019-04-21T11:04:23.543Z,46.30
2019-04-21T11:06:50.495Z,46.50
2019-04-21T11:09:22.051Z,46.00
2019-04-21T11:11:53.594Z,45.40
2019-04-21T11:14:25.361Z,46.10
2019-04-21T11:16:56.572Z,46.40
2019-04-21T11:19:28.475Z,46.80
2019-04-21T11:21:59.169Z,48.60
2019-04-21T11:24:29.493Z,48.50
2019-04-21T11:27:00.342Z,46.70
2019-04-21T11:29:33.086Z,45.40
2019-04-21T11:32:03.595Z,46.50
2019-04-21T11:34:33.996Z,46.00
2019-04-21T11:37:06.026Z,44.70
2019-04-21T11:39:46.265Z,45.60
2019-04-21T11:42:17.730Z,43.80
2019-04-21T11:44:49.439Z,44.40
2019-04-21T11:47:28.409Z,45.10
2019-04-21T11:49:59.065Z,45.40
2019-04-21T11:52:29.549Z,45.40
2019-04-21T11:55:00.553Z,47.60
2019-04-21T11:57:36.723Z,45.00
2019-04-21T12:00:03.950Z,44.90
2019-04-21T12:02:35.301Z,44.40
2019-04-21T12:05:07.569Z,46.10
2019-04-21T12:07:38.044Z,46.40
2019-04-21T12:10:09.234Z,45.90
2019-04-21T12:12:41.252Z,43.40
2019-04-21T12:15:14.075Z,41.70
2019-04-21T12:17:44.218Z,42.10
2019-04-21T12:20:14.811Z,41.60
2019-04-21T12:22:45.434Z,40.00
2019-04-21T12:25:17.076Z,41.20
2019-04-21T12:27:47.869Z,40.80
2019-04-21T12:30:19.886Z,43.00
2019-04-21T12:33:16.159Z,42.20
2019-04-21T12:35:48.172Z,38.80
2019-04-21T12:38:30.209Z,40.50
2019-04-21T12:40:51.043Z,40.80
2019-04-21T12:43:21.405Z,37.90
2019-04-21T12:45:51.913Z,37.90
2019-04-21T12:48:22.347Z,39.20
2019-04-21T12:50:54.112Z,38.90
2019-04-21T12:53:25.556Z,39.40
2019-04-21T12:55:57.775Z,38.30
2019-04-21T12:58:29.092Z,37.60
2019-04-21T13:01:00.925Z,37.70
2019-04-21T13:03:32.183Z,38.20
2019-04-21T13:06:03.516Z,38.10
2019-04-21T13:08:49.084Z,37.80
2019-04-21T13:11:08.198Z,38.30
2019-04-21T13:13:39.922Z,37.50
2019-04-21T13:16:11.600Z,37.90
2019-04-21T13:18:42.485Z,39.10
2019-04-21T13:21:14.028Z,35.00
2019-04-21T13:23:45.152Z,35.60
2019-04-21T13:26:27.205Z,36.90
2019-04-21T13:28:48.056Z,35.70
2019-04-21T13:31:18.501Z,36.20
2019-04-21T13:33:50.121Z,36.20
2019-04-21T13:36:21.340Z,36.50
2019-04-21T13:39:45.841Z,36.40
2019-04-21T13:42:02.884Z,36.30
2019-04-21T13:44:23.298Z,35.70
2019-04-21T13:46:54.582Z,34.70
2019-04-21T13:49:25.384Z,32.60
2019-04-21T13:51:56.110Z,31.30
2019-04-21T13:54:27.452Z,32.40
2019-04-21T13:56:58.649Z,32.40
2019-04-21T13:59:29.307Z,31.10
2019-04-21T14:02:00.489Z,33.00
2019-04-21T14:04:31.481Z,32.50
2019-04-21T14:07:02.493Z,31.80
2019-04-21T14:09:43.121Z,32.50
2019-04-21T14:12:05.431Z,33.40
2019-04-21T14:14:36.609Z,33.30
2019-04-21T14:17:07.142Z,33.40
2019-04-21T14:19:37.586Z,33.40
2019-04-21T14:22:11.622Z,34.60
2019-04-21T14:24:41.731Z,34.10
2019-04-21T14:27:12.253Z,33.10
2019-04-21T14:29:43.828Z,34.20
2019-04-21T14:32:16.023Z,35.00
2019-04-21T14:34:50.206Z,33.80
2019-04-21T14:37:20.453Z,33.00
2019-04-21T14:39:59.632Z,34.30
2019-04-21T14:42:24.268Z,34.00
2019-04-21T14:44:54.882Z,34.50
2019-04-21T14:47:44.183Z,35.60
2019-04-21T14:50:32.705Z,35.90
2019-04-21T14:53:34.134Z,36.40
2019-04-21T14:56:04.594Z,36.50
2019-04-21T14:58:35.108Z,36.00
2019-04-21T15:01:08.310Z,35.90
2019-04-21T15:03:39.575Z,38.00
2019-04-21T15:06:11.575Z,36.60
2019-04-21T15:08:42.919Z,38.70
2019-04-21T15:11:13.972Z,36.00
2019-04-21T15:13:45.930Z,37.20
2019-04-21T15:16:16.593Z,34.30
2019-04-21T15:18:46.970Z,34.40
2019-04-21T15:21:17.580Z,34.40
2019-04-21T15:23:48.438Z,34.80
2019-04-21T15:26:20.057Z,34.80
2019-04-21T15:28:51.065Z,37.40
2019-04-21T15:31:28.798Z,36.60
2019-04-21T15:33:54.929Z,35.40
2019-04-21T15:36:25.391Z,34.90
2019-04-21T15:38:56.149Z,35.00
2019-04-21T15:41:26.935Z,34.80
2019-04-21T15:43:59.699Z,35.20
2019-04-21T15:46:32.190Z,34.70
2019-04-21T15:49:02.780Z,34.60
2019-04-21T15:51:33.741Z,35.30
2019-04-21T15:54:04.947Z,36.30
2019-04-21T15:56:46.964Z,36.60
2019-04-21T15:59:40.187Z,37.50
2019-04-21T16:02:28.647Z,37.20
2019-04-21T16:04:59.064Z,38.40
2019-04-21T16:07:29.872Z,37.50
2019-04-21T16:10:01.957Z,37.10
2019-04-21T16:12:33.820Z,37.20
2019-04-21T16:15:05.168Z,37.40
2019-04-21T16:17:35.568Z,37.80
2019-04-21T16:20:08.004Z,40.00
2019-04-21T16:22:38.919Z,39.90
2019-04-21T16:25:10.814Z,39.70
2019-04-21T16:27:41.477Z,40.70
2019-04-21T16:30:12.925Z,40.60
2019-04-21T16:32:43.999Z,38.80
2019-04-21T16:35:16.445Z,38.80
2019-04-21T16:37:47.741Z,39.80
2019-04-21T16:40:19.317Z,38.00
2019-04-21T16:42:50.129Z,37.80
2019-04-21T16:45:21.437Z,38.80
2019-04-21T16:47:53.648Z,39.50
2019-04-21T16:50:25.716Z,39.40
2019-04-21T16:53:01.746Z,40.50
2019-04-21T16:55:41.369Z,39.30
2019-04-21T16:58:30.785Z,39.80
2019-04-21T17:01:10.989Z,40.90
2019-04-21T17:03:37.741Z,41.80
2019-04-21T17:06:09.050Z,39.60
2019-04-21T17:08:40.919Z,40.90
2019-04-21T17:11:18.797Z,40.70
2019-04-21T17:13:43.662Z,40.70
2019-04-21T17:16:44.699Z,39.60
2019-04-21T17:18:57.428Z,39.40
2019-04-21T17:21:19.401Z,40.40
2019-04-21T17:23:50.477Z,40.70
2019-04-21T17:26:21.432Z,40.00
2019-04-21T17:28:54.211Z,40.60
2019-04-21T17:31:26.527Z,40.70
2019-04-21T17:34:01.951Z,40.10
2019-04-21T17:36:29.568Z,40.40
2019-04-21T17:39:00.223Z,41.40
2019-04-21T17:41:36.410Z,40.80
2019-04-21T17:44:02.720Z,40.90
2019-04-21T17:46:42.107Z,41.80
2019-04-21T17:49:05.410Z,42.90
2019-04-21T17:52:09.790Z,46.90
2019-04-21T17:54:48.502Z,50.30
2019-04-21T17:57:36.271Z,51.20
2019-04-21T18:00:25.866Z,52.60
2019-04-21T18:02:43.161Z,53.60
2019-04-21T18:05:15.212Z,54.60
2019-04-21T18:07:45.033Z,54.40
2019-04-21T18:10:11.530Z,55.20
2019-04-21T18:12:40.073Z,55.40
2019-04-21T18:15:18.040Z,55.80
2019-04-21T18:17:34.236Z,56.20
2019-04-21T18:20:06.081Z,56.30
2019-04-21T18:23:18.629Z,56.90
2019-04-21T18:25:50.438Z,56.80
2019-04-21T18:28:12.550Z,57.30
2019-04-21T18:30:56.280Z,57.80
2019-04-21T18:33:32.017Z,57.80
2019-04-21T18:36:22.299Z,57.80
2019-04-21T18:39:10.312Z,57.80
2019-04-21T18:41:32.248Z,58.00
2019-04-21T18:47:13.888Z,58.80
2019-04-21T18:49:43.722Z,59.00
2019-04-21T18:52:45.332Z,59.50
2019-04-21T18:55:16.636Z,59.70
2019-04-21T18:57:42.433Z,60.20
2019-04-21T19:00:18.222Z,60.30
2019-04-21T19:02:47.705Z,60.60
2019-04-21T19:05:19.186Z,60.50
2019-04-21T19:08:06.985Z,60.80
2019-04-21T19:13:29.138Z,61.30
2019-04-21T19:15:41.361Z,61.20
2019-04-21T19:20:44.855Z,61.50
2019-04-21T19:23:21.461Z,61.60
2019-04-21T19:25:58.611Z,61.80
2019-04-21T19:28:16.399Z,61.90
2019-04-21T19:30:56.458Z,62.00
2019-04-21T19:33:18.721Z,62.30
2019-04-21T19:35:39.389Z,62.60
2019-04-21T19:38:13.683Z,62.80
2019-04-21T19:40:56.331Z,62.90
2019-04-21T19:43:35.880Z,63.10
2019-04-21T19:46:04.339Z,63.40
2019-04-21T19:48:46.921Z,63.70
2019-04-21T19:51:10.596Z,63.70
2019-04-21T19:53:37.177Z,64.00
2019-04-21T19:55:56.100Z,64.40
2019-04-21T19:58:33.011Z,64.60
2019-04-21T20:00:59.767Z,65.00
2019-04-21T20:03:30.647Z,65.40
2019-04-21T20:06:12.751Z,65.60
2019-04-21T20:08:46.974Z,66.00
2019-04-21T20:11:23.854Z,66.30
2019-04-21T20:14:18.897Z,66.70
2019-04-21T20:16:33.888Z,66.80
2019-04-21T20:18:48.093Z,67.10
2019-04-21T20:21:14.354Z,67.40
2019-04-21T20:23:46.616Z,67.50
2019-04-21T20:26:17.578Z,67.70
2019-04-21T20:28:59.282Z,68.10
2019-04-21T20:31:37.357Z,68.50
2019-04-21T20:34:14.054Z,68.60
2019-04-21T20:36:51.820Z,69.00
2019-04-21T20:39:07.251Z,69.30
2019-04-21T20:41:41.000Z,69.60
2019-04-21T20:44:20.863Z,70.00
2019-04-21T20:46:50.320Z,70.20
2019-04-21T20:49:19.277Z,70.70
2019-04-21T20:52:01.623Z,71.00
2019-04-21T20:54:30.296Z,71.00
2019-04-21T20:57:01.570Z,71.30
2019-04-21T20:59:28.645Z,71.50
2019-04-21T21:02:05.685Z,71.90
2019-04-21T21:04:29.604Z,71.90
2019-04-21T21:07:16.176Z,72.30
2019-04-21T21:09:41.450Z,72.80
2019-04-21T21:12:24.700Z,73.40
2019-04-21T21:14:42.590Z,73.60
2019-04-21T21:17:34.447Z,73.80
2019-04-21T21:19:53.655Z,74.00
2019-04-21T21:22:14.409Z,74.20
2019-04-21T21:24:52.013Z,75.40
2019-04-21T21:27:19.170Z,75.30
2019-04-21T21:29:56.564Z,75.70
2019-04-21T21:32:40.025Z,76.30
2019-04-21T21:35:03.788Z,76.60
2019-04-21T21:37:36.897Z,77.00
2019-04-21T21:40:11.180Z,77.20
2019-04-21T21:42:27.618Z,77.70
2019-04-21T21:44:58.641Z,78.30
2019-04-21T21:47:46.268Z,78.90
2019-04-21T21:50:08.868Z,79.40
2019-04-21T21:52:42.612Z,79.80
2019-04-21T21:55:01.591Z,80.40
2019-04-21T21:57:34.138Z,80.80
2019-04-21T22:00:10.753Z,81.00
2019-04-21T22:02:44.226Z,81.20
2019-04-21T22:05:15.068Z,81.20
2019-04-21T22:07:42.509Z,81.40
2019-04-21T22:10:13.178Z,81.20
2019-04-21T22:12:53.903Z,81.50
2019-04-21T22:15:22.210Z,81.20
2019-04-21T22:18:07.328Z,81.30
2019-04-21T22:20:37.796Z,81.70
2019-04-21T22:22:59.423Z,82.00
2019-04-21T22:25:29.833Z,82.30
2019-04-21T22:27:57.935Z,82.60
2019-04-21T22:30:36.580Z,82.70
2019-04-21T22:33:06.936Z,83.10
2019-04-21T22:35:41.813Z,83.00
2019-04-21T22:38:20.807Z,82.80
2019-04-21T22:40:50.470Z,83.00
2019-04-21T22:43:19.717Z,83.20
2019-04-21T22:45:41.340Z,83.50
2019-04-21T22:48:16.608Z,83.70
2019-04-21T22:50:44.498Z,83.60
2019-04-21T22:53:16.152Z,83.70
2019-04-21T22:55:49.562Z,83.50
2019-04-21T22:58:28.272Z,83.10
2019-04-21T23:00:56.431Z,83.00
2019-04-21T23:03:25.242Z,83.20
2019-04-21T23:05:55.910Z,83.10
2019-04-21T23:08:32.991Z,83.00
2019-04-21T23:11:03.491Z,83.40
2019-04-21T23:13:31.289Z,83.50
2019-04-21T23:16:04.832Z,83.70
2019-04-21T23:18:46.115Z,83.40
2019-04-21T23:21:21.164Z,83.10
2019-04-21T23:23:59.550Z,83.20
2019-04-21T23:26:25.770Z,83.50
2019-04-21T23:29:01.920Z,83.80
2019-04-21T23:31:34.220Z,84.30
2019-04-21T23:33:48.430Z,83.70
2019-04-21T23:36:24.142Z,84.10
2019-04-21T23:38:53.260Z,84.40
2019-04-21T23:41:27.279Z,84.90
2019-04-21T23:43:59.171Z,85.20
2019-04-21T23:46:31.930Z,85.60
2019-04-21T23:49:16.069Z,86.30
2019-04-21T23:51:43.520Z,86.90
2019-04-21T23:54:05.037Z,87.40
2019-04-21T23:56:41.958Z,87.70
2019-04-21T23:59:11.580Z,88.00
